createdAt,value
2023-03-31T00:00:58.045Z,12.88
2023-03-31T00:02:01.949Z,9.05
2023-03-31T00:03:10.116Z,8.02
2023-03-31T00:04:13.612Z,7.40
2023-03-31T00:05:18.277Z,7.65
2023-03-31T00:06:20.698Z,8.65
2023-03-31T00:07:23.093Z,10.68
2023-03-31T00:08:35.442Z,7.63
2023-03-31T00:10:45.598Z,8.70
2023-03-31T00:11:51.825Z,8.40
2023-03-31T00:12:54.062Z,8.73
2023-03-31T00:13:56.279Z,7.95
2023-03-31T00:14:58.489Z,9.02
2023-03-31T00:16:02.488Z,9.52
2023-03-31T00:17:04.809Z,7.68
2023-03-31T00:18:07.156Z,10.45
2023-03-31T00:19:17.835Z,6.60
2023-03-31T00:20:20.538Z,9.10
2023-03-31T00:21:33.877Z,8.63
2023-03-31T00:22:38.489Z,7.38
2023-03-31T00:23:41.659Z,8.30
2023-03-31T00:24:43.858Z,13.50
2023-03-31T00:25:46.114Z,15.65
2023-03-31T00:26:48.281Z,16.67
2023-03-31T00:27:50.573Z,20.35
2023-03-31T00:28:53.473Z,11.60
2023-03-31T00:29:55.605Z,12.82
2023-03-31T00:31:02.695Z,11.23
2023-03-31T00:32:04.967Z,15.15
2023-03-31T00:33:07.200Z,11.75
2023-03-31T00:34:09.439Z,12.75
2023-03-31T00:35:11.853Z,13.57
2023-03-31T00:36:21.120Z,10.27
2023-03-31T00:37:24.776Z,10.65
2023-03-31T00:38:28.984Z,10.15
2023-03-31T00:39:33.870Z,8.85
2023-03-31T00:40:36.995Z,10.95
2023-03-31T00:41:39.455Z,8.38
2023-03-31T00:42:43.145Z,8.60
2023-03-31T00:44:14.989Z,8.60
2023-03-31T00:45:17.283Z,8.80
2023-03-31T00:46:27.405Z,8.30
2023-03-31T00:47:30.152Z,10.82
2023-03-31T00:48:34.699Z,8.75
2023-03-31T00:49:40.777Z,11.60
2023-03-31T00:50:51.288Z,10.30
2023-03-31T00:51:56.992Z,13.35
2023-03-31T00:53:05.977Z,7.70
2023-03-31T00:54:08.380Z,10.05
2023-03-31T00:55:16.950Z,9.20
2023-03-31T00:56:19.167Z,6.78
2023-03-31T00:57:23.603Z,8.65
2023-03-31T00:58:28.849Z,8.05
2023-03-31T00:59:34.890Z,9.20
2023-03-31T01:00:37.254Z,11.63
2023-03-31T01:01:42.943Z,8.68
2023-03-31T01:02:58.707Z,8.05
2023-03-31T01:04:02.227Z,13.93
2023-03-31T01:05:05.304Z,7.72
2023-03-31T01:06:10.457Z,5.80
2023-03-31T01:07:40.441Z,12.00
2023-03-31T01:08:44.302Z,11.07
2023-03-31T01:09:47.918Z,7.72
2023-03-31T01:10:56.738Z,8.38
2023-03-31T01:11:59.116Z,7.97
2023-03-31T01:13:01.558Z,8.65
2023-03-31T01:14:05.848Z,12.80
2023-03-31T01:15:09.502Z,7.75
2023-03-31T01:16:12.030Z,5.43
2023-03-31T01:17:19.037Z,7.28
2023-03-31T01:18:22.408Z,12.18
2023-03-31T01:19:36.405Z,11.75
2023-03-31T01:21:18.538Z,11.93
2023-03-31T01:22:54.370Z,6.88
2023-03-31T01:24:17.873Z,9.20
2023-03-31T01:25:43.417Z,9.40
2023-03-31T01:27:24.770Z,9.48
2023-03-31T01:29:08.865Z,8.77
2023-03-31T01:30:25.586Z,7.55
2023-03-31T01:32:24.020Z,10.63
2023-03-31T01:33:57.197Z,8.75
2023-03-31T01:35:23.345Z,5.25
2023-03-31T01:36:57.844Z,6.53
2023-03-31T01:38:31.376Z,6.43
2023-03-31T01:39:52.085Z,7.18
2023-03-31T01:41:22.599Z,7.95
2023-03-31T01:42:48.270Z,7.05
2023-03-31T01:44:17.545Z,7.30
2023-03-31T01:45:50.631Z,6.65
2023-03-31T01:47:14.262Z,8.63
2023-03-31T01:48:44.482Z,7.18
2023-03-31T01:50:04.994Z,5.95
2023-03-31T01:51:13.849Z,4.45
2023-03-31T01:52:20.903Z,4.05
2023-03-31T01:53:30.074Z,7.75
2023-03-31T01:54:51.985Z,6.45
2023-03-31T01:56:37.610Z,6.57
2023-03-31T01:57:54.211Z,9.18
2023-03-31T01:59:08.220Z,6.70
2023-03-31T02:02:13.757Z,8.00
2023-03-31T02:03:22.277Z,7.90
2023-03-31T02:04:31.504Z,10.00
2023-03-31T02:05:41.846Z,9.10
2023-03-31T02:06:49.979Z,9.93
2023-03-31T02:07:59.357Z,8.57
2023-03-31T02:09:06.443Z,8.07
2023-03-31T02:10:12.513Z,10.95
2023-03-31T02:11:15.439Z,12.93
2023-03-31T02:12:20.121Z,9.73
2023-03-31T02:13:26.844Z,11.10
2023-03-31T02:14:33.632Z,9.80
2023-03-31T02:15:40.281Z,9.90
2023-03-31T02:16:47.746Z,9.07
2023-03-31T02:17:55.501Z,13.00
2023-03-31T02:19:09.485Z,7.95
2023-03-31T02:20:15.841Z,8.13
2023-03-31T02:21:19.321Z,5.90
2023-03-31T02:22:24.010Z,10.07
2023-03-31T02:23:31.645Z,10.45
2023-03-31T02:24:36.493Z,11.75
2023-03-31T02:25:46.349Z,9.57
2023-03-31T02:26:54.315Z,8.85
2023-03-31T02:28:00.878Z,8.43
2023-03-31T02:29:03.356Z,7.80
2023-03-31T02:30:07.110Z,9.25
2023-03-31T02:31:43.319Z,12.00
2023-03-31T02:32:47.081Z,12.20
2023-03-31T02:33:51.798Z,9.20
2023-03-31T02:34:55.886Z,8.73
2023-03-31T02:36:00.069Z,7.47
2023-03-31T02:37:02.365Z,8.50
2023-03-31T02:38:06.663Z,10.80
2023-03-31T02:39:13.003Z,7.80
2023-03-31T02:40:21.706Z,10.38
2023-03-31T02:41:26.238Z,6.82
2023-03-31T02:42:28.949Z,10.63
2023-03-31T02:43:31.171Z,13.07
2023-03-31T02:44:35.070Z,14.02
2023-03-31T02:45:41.747Z,8.02
2023-03-31T02:46:45.705Z,9.52
2023-03-31T02:47:47.998Z,8.93
2023-03-31T02:48:54.023Z,9.43
2023-03-31T02:49:59.746Z,13.05
2023-03-31T02:51:08.716Z,11.38
2023-03-31T02:52:19.442Z,9.65
2023-03-31T02:53:29.531Z,7.88
2023-03-31T02:54:52.536Z,5.97
2023-03-31T02:57:44.721Z,7.38
2023-03-31T02:59:16.561Z,10.85
2023-03-31T03:00:41.609Z,9.00
2023-03-31T03:02:05.551Z,8.95
2023-03-31T03:03:29.275Z,7.78
2023-03-31T03:05:03.281Z,9.65
2023-03-31T03:06:18.842Z,8.90
2023-03-31T03:07:48.877Z,8.80
2023-03-31T03:09:03.489Z,8.88
2023-03-31T03:10:16.313Z,7.10
2023-03-31T03:11:29.088Z,9.50
2023-03-31T03:12:49.803Z,10.05
2023-03-31T03:14:07.749Z,8.80
2023-03-31T03:15:28.147Z,8.80
2023-03-31T03:16:36.804Z,8.15
2023-03-31T03:17:45.355Z,8.98
2023-03-31T03:19:02.334Z,8.57
2023-03-31T03:20:09.813Z,6.38
2023-03-31T03:21:12.051Z,6.55
2023-03-31T03:22:14.205Z,7.72
2023-03-31T03:23:17.807Z,9.88
2023-03-31T03:24:22.620Z,10.70
2023-03-31T03:25:25.607Z,5.80
2023-03-31T03:26:28.193Z,9.13
2023-03-31T03:27:31.859Z,10.52
2023-03-31T03:28:34.030Z,8.82
2023-03-31T03:29:36.182Z,8.90
2023-03-31T03:30:38.993Z,8.10
2023-03-31T03:31:42.182Z,6.10
2023-03-31T03:32:44.355Z,7.75
2023-03-31T03:33:46.764Z,11.35
2023-03-31T03:34:49.042Z,8.35
2023-03-31T03:35:51.751Z,6.93
2023-03-31T03:36:54.006Z,8.15
2023-03-31T03:37:56.204Z,7.65
2023-03-31T03:38:58.503Z,7.97
2023-03-31T03:40:00.798Z,8.55
2023-03-31T03:41:03.135Z,7.60
2023-03-31T03:42:05.738Z,9.18
2023-03-31T03:43:07.955Z,7.70
2023-03-31T03:44:10.192Z,7.95
2023-03-31T03:45:12.354Z,9.30
2023-03-31T03:46:17.202Z,6.75
2023-03-31T03:47:19.401Z,6.88
2023-03-31T03:48:21.626Z,9.40
2023-03-31T03:49:23.912Z,6.78
2023-03-31T03:50:26.167Z,8.80
2023-03-31T03:51:28.466Z,7.72
2023-03-31T03:52:30.734Z,7.82
2023-03-31T03:53:33.138Z,4.97
2023-03-31T03:54:35.692Z,8.93
2023-03-31T03:55:37.974Z,6.30
2023-03-31T03:56:40.516Z,6.82
2023-03-31T03:57:42.722Z,6.53
2023-03-31T03:58:44.869Z,6.93
2023-03-31T03:59:47.300Z,8.32
2023-03-31T04:00:49.485Z,6.25
2023-03-31T04:01:52.646Z,7.32
2023-03-31T04:02:54.890Z,9.32
2023-03-31T04:03:57.218Z,8.55
2023-03-31T04:04:59.426Z,5.93
2023-03-31T04:06:01.677Z,7.55
2023-03-31T04:07:03.893Z,6.50
2023-03-31T04:08:08.432Z,5.88
2023-03-31T04:09:11.244Z,7.40
2023-03-31T04:10:13.517Z,7.57
2023-03-31T04:11:19.070Z,6.43
2023-03-31T04:12:21.573Z,7.15
2023-03-31T04:13:23.888Z,7.38
2023-03-31T04:14:26.314Z,6.93
2023-03-31T04:15:28.595Z,7.57
2023-03-31T04:16:32.366Z,12.93
2023-03-31T04:17:34.960Z,5.28
2023-03-31T04:18:42.703Z,6.32
2023-03-31T04:19:50.625Z,8.07
2023-03-31T04:21:05.771Z,6.55
2023-03-31T04:22:11.606Z,8.50
2023-03-31T04:23:14.990Z,11.05
2023-03-31T04:24:21.711Z,10.75
2023-03-31T04:25:24.154Z,9.05
2023-03-31T04:26:31.450Z,9.60
2023-03-31T04:27:35.008Z,8.25
2023-03-31T04:28:38.446Z,13.65
2023-03-31T04:29:40.637Z,8.27
2023-03-31T04:30:43.393Z,7.88
2023-03-31T04:31:45.763Z,9.50
2023-03-31T04:32:55.387Z,11.10
2023-03-31T04:34:06.664Z,6.03
2023-03-31T04:35:09.061Z,10.90
2023-03-31T04:36:17.730Z,7.13
2023-03-31T04:37:20.056Z,6.45
2023-03-31T04:38:23.954Z,9.10
2023-03-31T04:39:30.704Z,9.00
2023-03-31T04:40:35.222Z,11.90
2023-03-31T04:41:37.375Z,9.13
2023-03-31T04:42:39.602Z,10.05
2023-03-31T04:43:42.189Z,13.93
2023-03-31T04:44:44.417Z,15.93
2023-03-31T04:45:49.935Z,12.82
2023-03-31T04:46:52.156Z,16.00
2023-03-31T04:47:54.403Z,14.05
2023-03-31T04:48:56.999Z,16.67
2023-03-31T04:49:59.198Z,17.88
2023-03-31T04:51:01.432Z,18.05
2023-03-31T04:52:03.792Z,17.73
2023-03-31T04:53:06.731Z,19.05
2023-03-31T04:54:08.923Z,17.35
2023-03-31T04:55:11.292Z,19.20
2023-03-31T04:56:13.513Z,18.15
2023-03-31T04:57:15.959Z,11.95
2023-03-31T04:58:18.185Z,13.27
2023-03-31T04:59:20.316Z,10.75
2023-03-31T05:00:23.178Z,8.73
2023-03-31T05:01:25.448Z,11.60
2023-03-31T05:02:27.745Z,11.75
2023-03-31T05:03:30.222Z,10.32
2023-03-31T05:04:32.568Z,8.15
2023-03-31T05:05:34.758Z,9.70
2023-03-31T05:06:36.896Z,9.07
2023-03-31T05:07:39.777Z,9.23
2023-03-31T05:08:42.517Z,11.77
2023-03-31T05:09:45.150Z,9.30
2023-03-31T05:10:47.296Z,11.18
2023-03-31T05:11:49.445Z,8.73
2023-03-31T05:12:51.613Z,11.13
2023-03-31T05:13:53.746Z,10.60
2023-03-31T05:14:55.981Z,7.13
2023-03-31T05:15:58.310Z,8.05
2023-03-31T05:17:01.111Z,12.98
2023-03-31T05:18:03.408Z,12.18
2023-03-31T05:19:05.797Z,10.20
2023-03-31T05:20:09.474Z,7.18
2023-03-31T05:21:17.343Z,8.70
2023-03-31T05:22:20.618Z,10.57
2023-03-31T05:23:22.808Z,10.23
2023-03-31T05:24:25.241Z,7.20
2023-03-31T05:25:32.617Z,12.77
2023-03-31T05:26:34.869Z,10.93
2023-03-31T05:27:37.808Z,7.95
2023-03-31T05:28:40.322Z,9.63
2023-03-31T05:29:42.532Z,7.72
2023-03-31T05:30:44.717Z,13.52
2023-03-31T05:31:47.460Z,9.50
2023-03-31T05:32:49.705Z,11.23
2023-03-31T05:33:51.979Z,11.07
2023-03-31T05:34:57.723Z,9.90
2023-03-31T05:36:03.113Z,10.15
2023-03-31T05:37:05.528Z,10.75
2023-03-31T05:38:07.724Z,11.57
2023-03-31T05:39:10.029Z,10.05
2023-03-31T05:40:12.470Z,10.05
2023-03-31T05:41:16.796Z,12.15
2023-03-31T05:42:19.724Z,13.48
2023-03-31T05:43:21.971Z,12.02
2023-03-31T05:44:24.106Z,13.07
2023-03-31T05:45:26.344Z,11.45
2023-03-31T05:46:28.636Z,15.20
2023-03-31T05:47:30.812Z,9.55
2023-03-31T05:48:32.999Z,9.60
2023-03-31T05:49:35.271Z,11.55
2023-03-31T05:50:37.497Z,10.85
2023-03-31T05:51:39.803Z,9.45
2023-03-31T05:52:42.082Z,10.50
2023-03-31T05:53:44.409Z,14.68
2023-03-31T05:54:46.697Z,11.23
2023-03-31T05:55:48.939Z,15.27
2023-03-31T05:56:51.136Z,12.07
2023-03-31T05:57:54.489Z,14.35
2023-03-31T05:58:57.627Z,12.88
2023-03-31T06:00:00.518Z,12.38
2023-03-31T06:01:16.376Z,15.07
2023-03-31T06:02:20.355Z,8.95
2023-03-31T06:03:22.768Z,15.85
2023-03-31T06:04:25.016Z,12.98
2023-03-31T06:05:27.541Z,15.55
2023-03-31T06:06:29.768Z,12.65
2023-03-31T06:07:31.920Z,12.02
2023-03-31T06:08:35.664Z,14.63
2023-03-31T06:09:37.798Z,14.93
2023-03-31T06:10:42.775Z,14.40
2023-03-31T06:11:45.091Z,15.60
2023-03-31T06:12:47.552Z,11.32
2023-03-31T06:13:50.051Z,11.10
2023-03-31T06:14:52.632Z,10.07
2023-03-31T06:15:59.600Z,13.50
2023-03-31T06:17:01.856Z,13.70
2023-03-31T06:18:04.217Z,14.75
2023-03-31T06:19:06.598Z,11.73
2023-03-31T06:20:20.440Z,13.30
2023-03-31T06:21:29.918Z,15.75
2023-03-31T06:22:32.745Z,14.27
2023-03-31T06:23:35.061Z,11.35
2023-03-31T06:24:37.323Z,17.42
2023-03-31T06:25:50.321Z,13.32
2023-03-31T06:26:54.120Z,13.50
2023-03-31T06:27:56.316Z,17.98
2023-03-31T06:28:58.533Z,14.85
2023-03-31T06:30:00.874Z,15.68
2023-03-31T06:31:09.312Z,15.63
2023-03-31T06:32:12.075Z,12.30
2023-03-31T06:33:14.404Z,14.20
2023-03-31T06:34:17.829Z,12.25
2023-03-31T06:35:20.799Z,9.73
2023-03-31T06:36:23.140Z,11.20
2023-03-31T06:37:25.522Z,9.38
2023-03-31T06:38:28.335Z,10.52
2023-03-31T06:39:30.714Z,10.40
2023-03-31T06:40:33.853Z,5.78
2023-03-31T06:41:36.040Z,10.10
2023-03-31T06:42:38.267Z,12.80
2023-03-31T06:43:40.977Z,7.63
2023-03-31T06:44:43.262Z,13.55
2023-03-31T06:45:45.440Z,9.88
2023-03-31T06:46:47.623Z,8.45
2023-03-31T06:47:49.841Z,9.10
2023-03-31T06:48:53.276Z,8.85
2023-03-31T06:49:55.543Z,14.93
2023-03-31T06:51:02.403Z,12.73
2023-03-31T06:52:04.982Z,10.20
2023-03-31T06:53:08.626Z,8.88
2023-03-31T06:54:11.239Z,10.77
2023-03-31T06:55:15.430Z,12.18
2023-03-31T06:56:17.603Z,12.50
2023-03-31T06:57:20.837Z,8.65
2023-03-31T06:58:23.143Z,12.70
2023-03-31T06:59:25.426Z,10.45
2023-03-31T07:00:27.792Z,8.18
2023-03-31T07:01:31.481Z,8.65
2023-03-31T07:02:33.815Z,8.55
2023-03-31T07:03:36.264Z,8.85
2023-03-31T07:04:38.504Z,7.63
2023-03-31T07:05:40.957Z,9.73
2023-03-31T07:06:43.191Z,9.00
2023-03-31T07:07:46.501Z,7.43
2023-03-31T07:08:48.783Z,12.23
2023-03-31T07:09:51.015Z,8.00
2023-03-31T07:10:58.767Z,8.27
2023-03-31T07:12:01.628Z,9.57
2023-03-31T07:13:05.624Z,8.10
2023-03-31T07:14:07.991Z,6.78
2023-03-31T07:15:10.485Z,7.25
2023-03-31T07:16:14.202Z,8.75
2023-03-31T07:17:16.524Z,7.22
2023-03-31T07:18:19.952Z,8.40
2023-03-31T07:19:22.857Z,9.25
2023-03-31T07:20:25.813Z,8.93
2023-03-31T07:21:28.187Z,6.88
2023-03-31T07:22:30.429Z,8.07
2023-03-31T07:23:32.591Z,6.50
2023-03-31T07:24:34.813Z,7.45
2023-03-31T07:25:37.029Z,6.22
2023-03-31T07:26:39.197Z,6.72
2023-03-31T07:27:41.914Z,8.02
2023-03-31T07:28:44.086Z,6.85
2023-03-31T07:29:46.342Z,7.10
2023-03-31T07:30:48.557Z,8.60
2023-03-31T07:31:50.890Z,7.25
2023-03-31T07:32:54.546Z,7.78
2023-03-31T07:33:57.157Z,5.50
2023-03-31T07:35:00.285Z,7.57
2023-03-31T07:36:12.575Z,5.38
2023-03-31T07:37:16.075Z,6.97
2023-03-31T07:38:18.351Z,3.50
2023-03-31T07:39:22.566Z,4.40
2023-03-31T07:40:27.492Z,4.35
2023-03-31T07:41:29.990Z,5.45
2023-03-31T07:42:33.548Z,6.10
2023-03-31T07:43:35.824Z,6.55
2023-03-31T07:44:38.375Z,5.65
2023-03-31T07:45:40.943Z,5.63
2023-03-31T07:46:43.436Z,5.45
2023-03-31T07:47:46.672Z,4.15
2023-03-31T07:48:49.879Z,4.97
2023-03-31T07:49:52.106Z,8.25
2023-03-31T07:50:54.740Z,7.90
2023-03-31T07:52:04.798Z,4.60
2023-03-31T07:53:07.471Z,4.55
2023-03-31T07:54:09.676Z,4.35
2023-03-31T07:55:12.461Z,6.43
2023-03-31T07:56:16.884Z,6.32
2023-03-31T07:57:19.422Z,4.32
2023-03-31T07:58:21.809Z,5.20
2023-03-31T07:59:24.020Z,5.43
2023-03-31T08:00:26.361Z,5.05
2023-03-31T08:01:29.896Z,7.05
2023-03-31T08:02:32.628Z,4.00
2023-03-31T08:03:35.485Z,7.97
2023-03-31T08:04:38.248Z,6.95
2023-03-31T08:05:40.641Z,5.78
2023-03-31T08:06:44.275Z,5.93
2023-03-31T08:07:48.970Z,5.22
2023-03-31T08:08:51.729Z,10.32
2023-03-31T08:09:54.021Z,9.52
2023-03-31T08:10:56.390Z,9.13
2023-03-31T08:11:58.961Z,9.88
2023-03-31T08:13:01.233Z,14.13
2023-03-31T08:14:03.496Z,8.43
2023-03-31T08:15:09.206Z,9.90
2023-03-31T08:16:11.557Z,8.77
2023-03-31T08:17:14.046Z,7.38
2023-03-31T08:18:19.971Z,8.52
2023-03-31T08:19:22.624Z,7.50
2023-03-31T08:20:25.010Z,7.28
2023-03-31T08:21:28.492Z,8.95
2023-03-31T08:22:30.983Z,8.23
2023-03-31T08:23:33.277Z,5.95
2023-03-31T08:24:35.598Z,7.13
2023-03-31T08:25:38.504Z,8.40
2023-03-31T08:26:43.029Z,12.63
2023-03-31T08:27:46.702Z,6.32
2023-03-31T08:28:49.241Z,7.55
2023-03-31T08:29:51.762Z,8.65
2023-03-31T08:30:54.190Z,5.28
2023-03-31T08:31:56.935Z,6.35
2023-03-31T08:32:59.227Z,7.75
2023-03-31T08:34:02.749Z,6.20
2023-03-31T08:35:05.553Z,10.30
2023-03-31T08:36:10.580Z,6.15
2023-03-31T08:37:13.066Z,8.30
2023-03-31T08:38:15.369Z,7.22
2023-03-31T08:39:18.164Z,6.18
2023-03-31T08:40:24.061Z,5.88
2023-03-31T08:41:32.169Z,8.73
2023-03-31T08:42:43.827Z,7.95
2023-03-31T08:43:48.191Z,5.40
2023-03-31T08:45:01.888Z,9.13
2023-03-31T08:46:04.975Z,7.97
2023-03-31T08:47:15.896Z,8.63
2023-03-31T08:48:25.676Z,8.00
2023-03-31T08:49:39.387Z,9.60
2023-03-31T08:50:47.628Z,11.57
2023-03-31T08:51:54.678Z,7.82
2023-03-31T08:53:07.247Z,8.32
2023-03-31T08:54:33.229Z,8.52
2023-03-31T08:55:48.937Z,8.07
2023-03-31T08:56:51.946Z,8.30
2023-03-31T08:58:01.846Z,9.43
2023-03-31T08:59:04.125Z,10.10
2023-03-31T09:00:11.018Z,8.77
2023-03-31T09:01:19.790Z,11.60
2023-03-31T09:02:48.681Z,6.13
2023-03-31T09:04:12.489Z,7.47
2023-03-31T09:05:33.402Z,5.53
2023-03-31T09:06:46.476Z,7.00
2023-03-31T09:08:19.386Z,13.45
2023-03-31T09:09:44.473Z,5.28
2023-03-31T09:10:59.857Z,9.93
2023-03-31T09:12:16.400Z,7.35
2023-03-31T09:13:46.745Z,7.78
2023-03-31T09:14:58.989Z,7.40
2023-03-31T09:16:15.743Z,8.82
2023-03-31T09:17:18.881Z,8.27
2023-03-31T09:18:35.769Z,4.80
2023-03-31T09:20:01.711Z,8.15
2023-03-31T09:21:15.841Z,7.80
2023-03-31T09:22:26.782Z,5.35
2023-03-31T09:23:42.996Z,8.18
2023-03-31T09:25:10.589Z,7.80
2023-03-31T09:26:45.182Z,10.60
2023-03-31T09:27:50.460Z,11.15
2023-03-31T09:28:57.624Z,8.85
2023-03-31T09:30:24.891Z,8.52
2023-03-31T09:31:27.253Z,9.07
2023-03-31T09:32:31.981Z,6.82
2023-03-31T09:33:34.708Z,11.55
2023-03-31T09:34:37.416Z,9.60
2023-03-31T09:35:39.628Z,9.30
2023-03-31T09:36:42.832Z,10.02
2023-03-31T09:37:45.106Z,14.38
2023-03-31T09:38:47.694Z,6.70
2023-03-31T09:39:49.861Z,9.52
2023-03-31T09:40:52.120Z,9.95
2023-03-31T09:41:55.752Z,7.32
2023-03-31T09:43:06.650Z,10.48
2023-03-31T09:44:22.837Z,11.07
2023-03-31T09:45:25.412Z,8.93
2023-03-31T09:46:34.668Z,13.40
2023-03-31T09:47:46.363Z,7.43
2023-03-31T09:49:14.296Z,9.13
2023-03-31T09:50:17.362Z,9.30
2023-03-31T09:51:27.153Z,10.40
2023-03-31T09:52:34.984Z,7.63
2023-03-31T09:53:53.598Z,9.55
2023-03-31T09:54:58.170Z,8.90
2023-03-31T09:56:06.306Z,6.50
2023-03-31T09:57:24.078Z,10.73
2023-03-31T09:58:26.343Z,8.10
2023-03-31T09:59:35.606Z,8.70
2023-03-31T10:00:42.208Z,14.88
2023-03-31T10:01:46.246Z,9.55
2023-03-31T10:03:04.061Z,8.68
2023-03-31T10:04:09.156Z,7.50
2023-03-31T10:05:33.103Z,8.60
2023-03-31T10:06:42.073Z,7.68
2023-03-31T10:07:44.417Z,6.72
2023-03-31T10:08:52.277Z,8.18
2023-03-31T10:09:55.607Z,6.57
2023-03-31T10:11:09.168Z,9.52
2023-03-31T10:12:24.158Z,9.27
2023-03-31T10:13:43.261Z,8.70
2023-03-31T10:14:48.390Z,10.10
2023-03-31T10:15:55.581Z,8.27
2023-03-31T10:16:58.697Z,7.05
2023-03-31T10:18:01.414Z,10.02
2023-03-31T10:19:25.978Z,12.13
2023-03-31T10:20:39.155Z,6.55
2023-03-31T10:21:46.161Z,9.38
2023-03-31T10:22:48.395Z,7.68
2023-03-31T10:23:51.376Z,7.85
2023-03-31T10:24:53.887Z,6.90
2023-03-31T10:25:56.547Z,8.82
2023-03-31T10:26:58.876Z,7.82
2023-03-31T10:28:02.246Z,9.32
2023-03-31T10:29:12.856Z,8.40
2023-03-31T10:30:22.005Z,6.68
2023-03-31T10:31:26.867Z,8.52
2023-03-31T10:32:34.747Z,10.52
2023-03-31T10:33:45.035Z,8.27
2023-03-31T10:34:47.603Z,10.50
2023-03-31T10:36:02.904Z,8.25
2023-03-31T10:37:07.347Z,8.00
2023-03-31T10:38:17.421Z,9.38
2023-03-31T10:39:20.537Z,10.20
2023-03-31T10:40:27.274Z,8.98
2023-03-31T10:41:30.837Z,8.30
2023-03-31T10:42:34.157Z,9.43
2023-03-31T10:43:43.214Z,10.40
2023-03-31T10:44:46.024Z,9.40
2023-03-31T10:45:51.172Z,8.35
2023-03-31T10:46:53.530Z,10.57
2023-03-31T10:47:58.300Z,11.23
2023-03-31T10:49:00.519Z,10.02
2023-03-31T10:50:04.966Z,8.75
2023-03-31T10:51:27.481Z,10.50
2023-03-31T10:52:29.725Z,9.90
2023-03-31T10:54:02.596Z,7.20
2023-03-31T10:55:13.208Z,10.57
2023-03-31T10:56:44.864Z,9.73
2023-03-31T10:57:56.656Z,16.95
2023-03-31T10:59:17.351Z,10.70
2023-03-31T11:00:55.066Z,12.43
2023-03-31T11:02:20.138Z,14.65
2023-03-31T11:03:45.362Z,13.60
2023-03-31T11:05:25.352Z,5.80
2023-03-31T11:06:47.972Z,9.13
2023-03-31T11:08:04.047Z,7.15
2023-03-31T11:09:33.072Z,9.00
2023-03-31T11:11:12.183Z,9.55
2023-03-31T11:12:24.615Z,8.32
2023-03-31T11:14:50.855Z,8.75
2023-03-31T11:16:03.330Z,6.93
2023-03-31T11:17:21.969Z,11.02
2023-03-31T11:18:36.071Z,3.88
2023-03-31T11:20:03.085Z,8.18
2023-03-31T11:21:27.859Z,5.78
2023-03-31T11:22:41.754Z,4.05
2023-03-31T11:24:06.244Z,5.65
2023-03-31T11:25:29.780Z,3.28
2023-03-31T11:26:50.220Z,3.50
2023-03-31T11:28:04.579Z,4.57
2023-03-31T11:29:23.322Z,5.28
2023-03-31T11:30:33.717Z,3.13
2023-03-31T11:32:03.825Z,4.22
2023-03-31T11:33:12.024Z,4.30
2023-03-31T11:34:33.037Z,4.80
2023-03-31T11:35:54.373Z,6.95
2023-03-31T11:37:15.373Z,3.03
2023-03-31T11:38:44.994Z,4.60
2023-03-31T11:39:59.229Z,6.45
2023-03-31T11:41:27.851Z,5.00
2023-03-31T11:42:39.157Z,4.85
2023-03-31T11:43:48.781Z,3.75
2023-03-31T11:44:56.421Z,4.88
2023-03-31T11:46:26.220Z,3.70
2023-03-31T11:47:33.860Z,7.18
2023-03-31T11:48:51.084Z,5.38
2023-03-31T11:49:59.117Z,3.67
2023-03-31T11:51:03.341Z,4.25
2023-03-31T11:52:18.193Z,3.22
2023-03-31T11:53:27.212Z,2.78
2023-03-31T11:54:45.785Z,3.00
2023-03-31T11:55:51.831Z,4.32
2023-03-31T11:56:56.594Z,4.50
2023-03-31T11:58:15.522Z,5.50
2023-03-31T11:59:20.380Z,3.40
2023-03-31T12:00:30.390Z,1.88
2023-03-31T12:01:56.987Z,4.03
2023-03-31T12:03:24.959Z,3.90
2023-03-31T12:04:45.790Z,3.65
2023-03-31T12:05:52.141Z,3.92
2023-03-31T12:07:02.482Z,4.25
2023-03-31T12:08:23.095Z,4.30
2023-03-31T12:10:06.134Z,5.85
2023-03-31T12:11:22.227Z,4.85
2023-03-31T12:12:30.057Z,4.22
2023-03-31T12:13:52.572Z,4.22
2023-03-31T12:15:16.811Z,5.10
2023-03-31T12:16:23.730Z,5.95
2023-03-31T12:17:27.464Z,6.95
2023-03-31T12:18:36.890Z,5.57
2023-03-31T12:20:10.416Z,5.63
2023-03-31T12:21:12.582Z,6.53
2023-03-31T12:22:23.959Z,7.00
2023-03-31T12:23:33.779Z,6.07
2023-03-31T12:24:36.775Z,5.78
2023-03-31T12:25:52.115Z,5.53
2023-03-31T12:27:06.242Z,4.80
2023-03-31T12:28:10.411Z,5.22
2023-03-31T12:29:38.569Z,6.15
2023-03-31T12:30:44.476Z,5.35
2023-03-31T12:31:48.876Z,6.20
2023-03-31T12:32:58.986Z,5.18
2023-03-31T12:34:06.287Z,6.53
2023-03-31T12:35:22.665Z,7.25
2023-03-31T12:36:37.599Z,6.05
2023-03-31T12:37:57.749Z,6.38
2023-03-31T12:39:25.050Z,4.70
2023-03-31T12:40:36.441Z,6.60
2023-03-31T12:41:47.403Z,4.85
2023-03-31T12:43:01.687Z,5.25
2023-03-31T12:44:34.800Z,6.30
2023-03-31T12:45:42.798Z,6.13
2023-03-31T12:46:59.639Z,6.15
2023-03-31T12:48:26.841Z,7.53
2023-03-31T12:49:50.502Z,9.93
2023-03-31T12:51:04.896Z,6.72
2023-03-31T12:52:11.806Z,8.50
2023-03-31T12:53:42.237Z,5.10
2023-03-31T12:55:16.980Z,4.95
2023-03-31T12:56:19.275Z,3.95
2023-03-31T12:57:24.046Z,4.78
2023-03-31T12:58:34.663Z,3.30
2023-03-31T12:59:39.011Z,5.40
2023-03-31T13:01:07.732Z,5.78
2023-03-31T13:02:16.433Z,7.60
2023-03-31T13:03:47.726Z,3.25
2023-03-31T13:04:50.869Z,4.32
2023-03-31T13:05:53.018Z,2.25
2023-03-31T13:06:59.557Z,3.00
2023-03-31T13:08:02.436Z,3.10
2023-03-31T13:09:27.620Z,3.45
2023-03-31T13:10:31.158Z,3.97
2023-03-31T13:11:33.430Z,3.97
2023-03-31T13:12:36.030Z,3.05
2023-03-31T13:14:02.365Z,3.05
2023-03-31T13:15:05.500Z,4.93
2023-03-31T13:16:07.666Z,3.67
2023-03-31T13:17:29.691Z,3.40
2023-03-31T13:18:34.024Z,4.75
2023-03-31T13:19:37.593Z,3.38
2023-03-31T13:20:41.987Z,4.88
2023-03-31T13:21:58.793Z,3.38
2023-03-31T13:23:17.383Z,4.00
2023-03-31T13:24:25.982Z,4.15
2023-03-31T13:25:30.946Z,4.32
2023-03-31T13:26:38.446Z,3.20
2023-03-31T13:27:49.752Z,5.40
2023-03-31T13:29:14.373Z,2.63
2023-03-31T13:30:41.452Z,4.78
2023-03-31T13:32:01.929Z,3.92
2023-03-31T13:33:10.174Z,4.53
2023-03-31T13:34:12.736Z,4.90
2023-03-31T13:35:24.001Z,4.03
2023-03-31T13:36:49.442Z,5.85
2023-03-31T13:38:17.205Z,5.90
2023-03-31T13:39:56.524Z,5.03
2023-03-31T13:41:26.516Z,4.75
2023-03-31T13:43:09.036Z,5.88
2023-03-31T13:44:38.426Z,4.40
2023-03-31T13:46:02.571Z,4.38
2023-03-31T13:47:19.409Z,5.07
2023-03-31T13:48:49.231Z,6.85
2023-03-31T13:49:54.488Z,5.63
2023-03-31T13:51:18.230Z,8.05
2023-03-31T13:53:06.538Z,6.72
2023-03-31T13:54:55.382Z,5.78
2023-03-31T13:56:25.184Z,6.93
2023-03-31T13:58:24.839Z,6.40
2023-03-31T14:00:12.385Z,7.35
2023-03-31T14:02:44.204Z,7.80
2023-03-31T14:04:26.036Z,5.00
2023-03-31T14:05:28.143Z,7.15
2023-03-31T14:06:30.292Z,6.55
2023-03-31T14:07:46.450Z,4.20
2023-03-31T14:08:58.930Z,6.50
2023-03-31T14:11:24.674Z,5.38
2023-03-31T14:12:35.366Z,6.18
2023-03-31T14:13:37.590Z,7.32
2023-03-31T14:14:40.759Z,6.53
2023-03-31T14:15:51.011Z,6.45
2023-03-31T14:16:58.465Z,8.68
2023-03-31T14:18:02.026Z,8.05
2023-03-31T14:19:41.823Z,9.20
2023-03-31T14:20:58.361Z,6.72
2023-03-31T14:22:32.194Z,5.07
2023-03-31T14:23:54.541Z,5.75
2023-03-31T14:25:12.848Z,7.20
2023-03-31T14:26:57.017Z,8.23
2023-03-31T14:28:16.765Z,4.75
2023-03-31T14:29:47.149Z,4.38
2023-03-31T14:31:13.596Z,5.85
2023-03-31T14:32:19.024Z,6.82
2023-03-31T14:33:36.507Z,8.40
2023-03-31T14:34:53.676Z,5.88
2023-03-31T14:36:04.626Z,4.15
2023-03-31T14:37:13.633Z,6.68
2023-03-31T14:38:21.592Z,5.88
2023-03-31T14:39:37.621Z,4.60
2023-03-31T14:40:53.842Z,7.53
2023-03-31T14:42:01.470Z,5.28
2023-03-31T14:43:04.606Z,4.82
2023-03-31T14:44:07.723Z,3.83
2023-03-31T14:45:24.887Z,4.10
2023-03-31T14:46:32.015Z,7.82
2023-03-31T14:47:34.293Z,7.10
2023-03-31T14:48:46.108Z,5.03
2023-03-31T14:49:58.535Z,8.95
2023-03-31T14:52:14.238Z,7.03
2023-03-31T14:54:21.083Z,5.82
2023-03-31T14:55:31.796Z,3.90
2023-03-31T14:56:42.413Z,9.57
2023-03-31T14:57:46.861Z,5.45
2023-03-31T14:58:52.907Z,4.55
2023-03-31T14:59:55.733Z,3.90
2023-03-31T15:00:59.330Z,3.80
2023-03-31T15:02:04.462Z,7.03
2023-03-31T15:03:13.848Z,5.40
2023-03-31T15:04:25.946Z,5.50
2023-03-31T15:05:36.362Z,3.75
2023-03-31T15:06:41.853Z,3.40
2023-03-31T15:07:44.091Z,3.38
2023-03-31T15:08:46.686Z,4.22
2023-03-31T15:09:50.892Z,3.97
2023-03-31T15:11:02.377Z,3.63
2023-03-31T15:12:15.645Z,3.70
2023-03-31T15:13:34.590Z,7.30
2023-03-31T15:14:43.394Z,4.25
2023-03-31T15:15:46.261Z,5.15
2023-03-31T15:16:50.664Z,5.63
2023-03-31T15:17:54.399Z,3.97
2023-03-31T15:18:58.793Z,5.20
2023-03-31T15:20:04.869Z,4.25
2023-03-31T15:21:19.589Z,4.88
2023-03-31T15:22:25.821Z,3.13
2023-03-31T15:23:28.523Z,5.13